• Join FlightAware (Why Join?)
  • Login
  • US Flag 
01:48AM EDT


 

Airport Tracker/Info


-or-


 

Live Flight TrackerFlight Track Log ✈ SKW6195 ✈ 22-Nov-2013 ✈ CYVR - KDEN

Flight Track Log - Related Links

Times and Time Zones

All times are in EST time to prevent confusion due to time zone crossing. See the SKW6195 flight status page for this flight to view local times or setup timezone preferences in your user account.

Time Position Orientation Groundspeed Altitude Reporting Facility
EST Latitude Longitude Course Direction KTS MPH feet Rate Location/Type
05:45PM 49.1500 -123.3167 139° Southeast 210 242 3,400  Level Vancouver Center
05:46PM 49.1000 -123.2667 147° Southeast 250 288 5,700 2,280 Climbing Vancouver Center
05:47PM 48.9494 -122.5032 139° Southeast  Level Estimated
05:47PM 49.0667 -123.1667 117° Southeast 280 322 8,000  Level Vancouver Center
05:48PM 48.8517 -122.3791 140° Southeast  Level FlightAware Approximate
05:48PM 49.0333 -123.0333 111° Southeast 300 345 10,500  Level Vancouver Center
05:49PM 48.7452 -122.2754 132° Southeast  Level FlightAware Approximate
05:49PM 49.0000 -122.9333 117° Southeast 330 380 12,600  Level Vancouver Center
05:50PM 48.6600 -122.1465 139° Southeast  Level FlightAware Approximate
05:50PM 48.9667 -122.7833 109° East 330 380 14,800  Level Vancouver Center
05:51PM 48.9333 -122.6500 111° Southeast 340 391 17,100 1,680 Climbing Vancouver Center
05:52PM 48.8833 -122.5000 117° Southeast 360 414 18,200 1,500 Climbing Vancouver Center
05:53PM 48.8500 -122.3833 113° Southeast 370 426 20,100 1,740 Climbing Vancouver Center
05:54PM 48.8000 -122.2333 117° Southeast 380 437 21,700 1,500 Climbing Vancouver Center
05:55PM 48.7500 -122.0833 117° Southeast 400 460 23,200 1,500 Climbing Vancouver Center
05:56PM 48.7000 -121.9333 117° Southeast 400 460 24,800 1,500 Climbing Vancouver Center
05:57PM 48.6500 -121.7500 112° Southeast 410 472 26,200 1,200 Climbing Vancouver Center
05:58PM 48.6000 -121.6000 117° Southeast 420 483 27,200 840 Climbing Vancouver Center
05:59PM 48.5897 -121.5531 108° East 426 490 27,500 900 Climbing Seattle Center
06:00PM 48.5328 -121.3881 117° Southeast 440 506 28,600 1,080 Climbing Seattle Center
06:01PM 48.4614 -121.1875 118° Southeast 450 518 29,800 1,080 Climbing Seattle Center
06:02PM 48.4011 -121.0181 118° Southeast 456 525 30,800 960 Climbing Seattle Center
06:03PM 48.3411 -120.8481 118° Southeast 460 529 31,800 780 Climbing Seattle Center
06:04PM 48.2878 -120.7039 119° Southeast 467 537 32,500 720 Climbing Seattle Center
06:05PM 48.2133 -120.4983 118° Southeast 469 540 33,300 720 Climbing Seattle Center
06:06PM 48.1503 -120.3231 118° Southeast 476 548 34,000 660 Climbing Seattle Center
06:07PM 48.0864 -120.1478 119° Southeast 479 551 34,700 660 Climbing Seattle Center
06:08PM 48.0214 -119.9725 119° Southeast 483 556 35,400 720 Climbing Seattle Center
06:09PM 47.9556 -119.7981 119° Southeast 484 557 36,200 660 Climbing Seattle Center
06:10PM 47.8911 -119.6242 119° Southeast 481 554 36,800 660 Climbing Seattle Center
06:11PM 47.8275 -119.4522 119° Southeast 477 549 37,600 720 Climbing Seattle Center
06:12PM 47.7619 -119.2831 120° Southeast 473 544 38,300 660 Climbing Seattle Center
06:13PM 47.6989 -119.1167 119° Southeast 466 536 39,000 300 Climbing Seattle Center
06:14PM 47.6358 -118.9506 119° Southeast 464 534 39,000  Level Seattle Center
06:15PM 47.5594 -118.7531 120° Southeast 464 534 39,000  Level Seattle Center
06:16PM 47.4961 -118.5878 120° Southeast 464 534 39,000  Level Seattle Center
06:17PM 47.4306 -118.4233 120° Southeast 467 537 39,000  Level Seattle Center
06:18PM 47.3658 -118.2581 120° Southeast 467 537 39,000  Level Seattle Center
06:19PM 47.2997 -118.0925 120° Southeast 471 542 39,000  Level Seattle Center
06:20PM 47.2342 -117.9258 120° Southeast 472 543 39,000  Level Seattle Center
06:21PM 47.1675 -117.7603 121° Southeast 474 545 39,000  Level Seattle Center
06:22PM 47.1008 -117.5917 120° Southeast 480 552 39,000  Level Seattle Center
06:23PM 47.0331 -117.4261 121° Southeast 479 551 39,000  Level Seattle Center
06:24PM 46.9517 -117.2278 121° Southeast 479 551 39,000  Level Seattle Center
06:25PM 46.8828 -117.0592 121° Southeast 485 558 39,000  Level Seattle Center
06:26PM 46.8147 -116.8922 121° Southeast 483 556 39,000  Level Seattle Center
06:27PM 46.7450 -116.7261 121° Southeast 483 556 39,000  Level Seattle Center
06:28PM 46.6753 -116.5606 121° Southeast 482 555 39,000  Level Seattle Center
06:29PM 46.6061 -116.3958 121° Southeast 481 554 39,000  Level Seattle Center
06:30PM 46.5375 -116.2325 121° Southeast 477 549 39,000  Level Seattle Center
06:31PM 46.4667 -116.0678 122° Southeast 481 554 39,000 -60 Level Seattle Center
06:32PM 46.3969 -115.9058 122° Southeast 478 550 38,900 -780 Descending Seattle Center
06:33PM 46.3111 -115.7042 122° Southeast 490 564 37,500 -1,020 Descending Seattle Center
06:34PM 46.2364 -115.5339 122° Southeast 500 575 36,900 -300 Descending Seattle Center
06:35PM 46.1636 -115.3658 122° Southeast 497 572 37,000  Climbing Seattle Center
06:36PM 46.0931 -115.2053 122° Southeast 482 555 37,000  Level Seattle Center
06:37PM 46.0225 -115.0436 122° Southeast 479 551 37,000  Level Seattle Center
06:38PM 45.9506 -114.8850 123° Southeast 476 548 37,000  Level Seattle Center
06:39PM 45.8803 -114.7261 122° Southeast 474 545 37,000  Level Seattle Center
06:40PM 45.8092 -114.5689 123° Southeast 473 544 37,000  Level Seattle Center
06:41PM 45.7381 -114.4125 123° Southeast 471 542 37,000 -60 Level Seattle Center
06:42PM 45.6661 -114.2581 124° Southeast 469 540 36,900  Descending Seattle Center
06:44PM 45.5958 -114.1022 123° Southeast 469 540 37,000  Climbing Seattle Center
06:45PM 45.5225 -113.9400 123° Southeast 467 537 37,000  Level Seattle Center
06:46PM 45.4525 -113.7878 123° Southeast 464 534 37,000  Level Seattle Center
06:47PM 45.3336 -113.5394 124° Southeast 461 531 37,000  Level Salt Lake Center
06:48PM 45.2658 -113.3967 124° Southeast 456 525 37,000  Level Salt Lake Center
06:49PM 45.2006 -113.2536 123° Southeast 454 522 37,000  Level Salt Lake Center
06:50PM 45.1211 -113.0883 124° Southeast 455 524 37,000  Level Salt Lake Center
06:51PM 45.0544 -112.9469 124° Southeast 452 520 37,000  Level Salt Lake Center
06:52PM 44.9756 -112.7819 124° Southeast 454 522 37,000  Level Salt Lake Center
06:53PM 44.9083 -112.6406 124° Southeast 454 522 37,000  Level Salt Lake Center
06:54PM 44.8294 -112.4769 124° Southeast 454 522 37,000  Level Salt Lake Center
06:55PM 44.7608 -112.3353 124° Southeast 457 526 37,000  Level Salt Lake Center
06:56PM 44.6933 -112.1978 125° Southeast 451 519 37,000  Level Salt Lake Center
06:57PM 44.6136 -112.0353 125° Southeast 454 522 37,000  Level Salt Lake Center
06:58PM 44.5444 -111.8956 125° Southeast 457 526 37,000  Level Salt Lake Center
06:59PM 44.4650 -111.7342 125° Southeast 456 525 37,000  Level Salt Lake Center
07:00PM 44.3972 -111.5983 125° Southeast 452 520 37,000  Level Salt Lake Center
07:01PM 44.3164 -111.4381 125° Southeast 458 527 37,000  Level Salt Lake Center
07:02PM 44.2472 -111.2997 125° Southeast 458 527 37,000  Level Salt Lake Center
07:03PM 44.1644 -111.1392 126° Southeast 460 529 37,000  Level Salt Lake Center
07:04PM 44.0928 -110.9978 125° Southeast 466 536 37,000  Level Salt Lake Center
07:05PM 44.0086 -110.8328 125° Southeast 470 541 37,000  Level Salt Lake Center
07:06PM 43.9353 -110.6900 125° Southeast 474 545 37,000  Level Salt Lake Center
07:08PM 43.8608 -110.5472 126° Southeast 477 549 37,000  Level Salt Lake Center
07:09PM 43.7744 -110.3814 126° Southeast 476 548 37,000  Level Salt Lake Center
07:10PM 43.7003 -110.2392 126° Southeast 476 548 37,000  Level Salt Lake Center
07:11PM 43.6122 -110.0733 126° Southeast 480 552 37,000  Level Salt Lake Center
07:12PM 43.5392 -109.9300 125° Southeast 479 551 37,000  Level Salt Lake Center
07:13PM 43.4661 -109.7964 127° Southeast 473 544 37,000  Level Salt Lake Center
07:14PM 43.3722 -109.6203 126° Southeast 476 548 37,000  Level Salt Lake Center
07:15PM 43.2947 -109.4764 126° Southeast 472 543 37,000  Level Salt Lake Center
07:16PM 43.2164 -109.3336 127° Southeast 471 542 37,000  Level Salt Lake Center
07:17PM 43.1386 -109.1894 126° Southeast 473 544 37,000  Level Salt Lake Center
07:18PM 43.0600 -109.0439 126° Southeast 475 547 37,000  Level Salt Lake Center
07:19PM 42.9822 -108.9011 127° Southeast 471 542 37,000  Level Salt Lake Center
07:20PM 42.8914 -108.7378 127° Southeast 464 534 37,000  Level Salt Lake Center
07:21PM 42.8153 -108.6000 127° Southeast 471 542 37,000  Level Salt Lake Center
07:22PM 42.7269 -108.4400 127° Southeast 472 543 37,000  Level Salt Lake Center
07:23PM 42.6497 -108.3033 128° Southeast 474 545 37,000  Level Salt Lake Center
07:24PM 42.5742 -108.1672 127° Southeast 472 543 37,000  Level Salt Lake Center
07:25PM 42.4853 -108.0075 127° Southeast 473 544 37,000  Level Salt Lake Center
07:26PM 42.4086 -107.8739 128° Southeast 470 541 37,000  Level Salt Lake Center
07:27PM 42.3192 -107.7167 128° Southeast 472 543 37,000  Level Salt Lake Center
07:28PM 42.2383 -107.5911 131° Southeast 465 535 37,000  Level Salt Lake Center
07:29PM 42.1497 -107.4736 135° Southeast 463 533 37,000  Level Salt Lake Center
07:30PM 42.0331 -107.3133 134° Southeast 466 536 37,000  Level Denver Center
07:31PM 41.9453 -107.1956 135° Southeast 465 535 37,000  Level Denver Center
07:32PM 41.8592 -107.0789 135° Southeast 462 532 37,000  Level Denver Center
07:33PM 41.7583 -106.9433 135° Southeast 459 528 37,000  Level Denver Center
07:34PM 41.6733 -106.8300 135° Southeast 453 521 37,000  Level Denver Center
07:35PM 41.5739 -106.6994 135° Southeast 449 517 37,000  Level Denver Center
07:36PM 41.4908 -106.5889 135° Southeast 442 509 37,000  Level Denver Center
07:37PM 41.3944 -106.4622 135° Southeast 442 509 37,000  Level Denver Center
07:38PM 41.3250 -106.3714 135° Southeast 440 506 37,000 -300 Level Denver Center
07:40PM 41.2239 -106.2403 136° Southeast 446 513 36,400 -1,500 Descending Denver Center
07:41PM 41.1264 -106.1136 136° Southeast 449 517 33,900 -2,280 Descending Denver Center
07:42PM 41.0408 -106.0050 136° Southeast 446 513 31,800 -2,040 Descending Denver Center
07:43PM 40.9439 -105.8789 135° Southeast 446 513 29,400 -2,220 Descending Denver Center
07:44PM 40.8403 -105.7458 136° Southeast 435 501 26,900 -2,220 Descending Denver Center
07:45PM 40.7572 -105.6386 136° Southeast 424 488 24,900 -1,980 Descending Denver Center
07:46PM 40.6767 -105.5358 136° Southeast 406 467 22,900 -1,860 Descending Denver Center
07:47PM 40.5858 -105.4108 134° Southeast 395 455 20,800 -1,560 Descending Denver Center
07:48PM 40.5164 -105.2769 124° Southeast 370 426 19,400 -1,500 Descending Denver Center
07:49PM 40.4725 -105.1611 116° Southeast 355 409 17,700 -1,380 Descending Denver Center
07:50PM 40.4400 -105.0483 111° Southeast 332 382 16,300 -1,140 Descending Denver Center
07:52PM 40.4025 -104.9167 110° East 296 341 14,900 -1,320 Descending Denver Center
07:53PM 40.3528 -104.8272 126° Southeast 245 282 13,300 -1,260 Descending Denver Center
07:54PM 40.3106 -104.7583 129° Southeast 244 281 12,300 -1,020 Descending Denver Center
07:55PM 40.2486 -104.7272 159° South 238 274 11,300 -1,020 Descending Denver Center
07:56PM 40.1831 -104.6975 161° South 233 268 10,200 -1,020 Descending Denver Center
07:57PM 40.1181 -104.6844 171° South 238 274 9,200 -1,020 Descending Denver Center
07:58PM 40.0447 -104.6844 180° South 244 281 8,200 -960 Descending Denver Center
07:59PM 39.9886 -104.6850 180° South 202 232 7,300 -1,020 Descending Denver Center
08:00PM 39.9367 -104.6861 181° South 165 190 6,200 -960 Descending Denver Center
08:01PM 39.8956 -104.6869 181° South 148 170 5,400 -780 Descending Denver Center
08:03PM 39.8617 -104.6732 180° South  Level Estimated
08:10PM 39.8617 -104.6732 180° South  Level Estimated
08:11PM 39.8617 -104.6732 180° South  Level Estimated
08:12PM 39.8617 -104.6732 180° South  Level Estimated